createdAt,value
2022-09-15T00:01:46.003Z,1.00
2022-09-15T00:04:13.211Z,1.25
2022-09-15T00:06:39.867Z,1.00
2022-09-15T00:09:06.624Z,1.45
2022-09-15T00:11:34.251Z,1.20
2022-09-15T00:14:02.241Z,1.05
2022-09-15T00:16:31.074Z,1.05
2022-09-15T00:18:58.522Z,1.10
2022-09-15T00:21:30.428Z,1.13
2022-09-15T00:23:57.220Z,1.08
2022-09-15T00:26:25.218Z,0.90
2022-09-15T00:28:52.175Z,0.90
2022-09-15T00:31:21.302Z,1.15
2022-09-15T00:33:49.132Z,1.10
2022-09-15T00:36:15.997Z,0.93
2022-09-15T00:38:42.731Z,1.20
2022-09-15T00:41:11.502Z,1.25
2022-09-15T00:43:41.390Z,1.00
2022-09-15T00:46:08.412Z,2.17
2022-09-15T00:48:35.433Z,1.60
2022-09-15T00:51:02.124Z,1.00
2022-09-15T00:53:28.850Z,1.60
2022-09-15T00:55:55.574Z,1.10
2022-09-15T00:58:36.590Z,0.88
2022-09-15T01:01:04.350Z,1.88
2022-09-15T01:03:33.088Z,1.15
2022-09-15T01:06:24.898Z,1.33
2022-09-15T01:09:03.419Z,1.00
2022-09-15T01:11:30.185Z,1.15
2022-09-15T01:13:57.324Z,1.33
2022-09-15T01:16:33.342Z,1.40
2022-09-15T01:19:14.756Z,1.27
2022-09-15T01:21:58.145Z,1.85
2022-09-15T01:24:44.970Z,1.85
2022-09-15T01:27:59.361Z,1.70
2022-09-15T01:30:26.547Z,1.98
2022-09-15T01:33:10.910Z,2.20
2022-09-15T01:36:01.862Z,1.67
2022-09-15T01:38:47.230Z,1.95
2022-09-15T01:41:17.918Z,1.55
2022-09-15T01:43:51.584Z,2.60
2022-09-15T01:46:20.350Z,2.72
2022-09-15T01:48:47.733Z,1.63
2022-09-15T01:51:14.407Z,1.73
2022-09-15T01:53:41.179Z,2.53
2022-09-15T01:56:09.614Z,1.58
2022-09-15T01:58:37.442Z,1.48
2022-09-15T02:01:23.157Z,1.70
2022-09-15T02:04:07.715Z,1.60
2022-09-15T02:06:47.000Z,1.23
2022-09-15T02:09:18.004Z,1.50
2022-09-15T02:12:20.503Z,1.60
2022-09-15T02:14:57.724Z,1.75
2022-09-15T02:17:24.458Z,1.60
2022-09-15T02:19:55.756Z,1.55
2022-09-15T02:22:27.892Z,1.30
2022-09-15T02:24:58.139Z,2.03
2022-09-15T02:27:26.761Z,1.60
2022-09-15T02:29:55.178Z,1.50
2022-09-15T02:32:23.216Z,1.58
2022-09-15T02:34:51.464Z,1.80
2022-09-15T02:37:19.479Z,2.40
2022-09-15T02:39:49.129Z,1.30
2022-09-15T02:42:25.927Z,1.73
2022-09-15T02:44:52.699Z,1.50
2022-09-15T02:47:19.566Z,2.13
2022-09-15T02:49:46.574Z,1.80
2022-09-15T02:52:13.264Z,2.03
2022-09-15T02:54:39.985Z,2.22
2022-09-15T02:57:06.793Z,2.92
2022-09-15T02:59:52.112Z,1.83
2022-09-15T03:02:20.270Z,2.05
2022-09-15T03:04:47.694Z,1.55
2022-09-15T03:07:14.458Z,1.88
2022-09-15T03:09:41.551Z,1.77
2022-09-15T03:12:08.238Z,2.17
2022-09-15T03:14:35.446Z,1.83
2022-09-15T03:17:03.058Z,1.40
2022-09-15T03:19:29.867Z,2.00
2022-09-15T03:21:56.740Z,1.73
2022-09-15T03:24:23.380Z,1.50
2022-09-15T03:26:50.054Z,1.90
2022-09-15T03:29:16.783Z,1.80
2022-09-15T03:31:43.588Z,1.40
2022-09-15T03:34:10.280Z,1.40
2022-09-15T03:36:36.998Z,1.75
2022-09-15T03:39:03.760Z,2.08
2022-09-15T03:41:30.519Z,2.05
2022-09-15T03:43:57.443Z,1.42
2022-09-15T03:46:24.140Z,2.15
2022-09-15T03:48:50.775Z,1.33
2022-09-15T03:51:17.968Z,1.35
2022-09-15T03:53:44.743Z,1.80
2022-09-15T03:56:14.047Z,1.45
2022-09-15T03:58:41.161Z,2.22
2022-09-15T04:01:07.950Z,1.90
2022-09-15T04:03:37.702Z,1.60
2022-09-15T04:06:08.846Z,1.50
2022-09-15T04:08:35.474Z,1.67
2022-09-15T04:11:06.205Z,2.25
2022-09-15T04:13:33.143Z,1.30
2022-09-15T04:16:01.328Z,1.80
2022-09-15T04:18:28.903Z,2.05
2022-09-15T04:20:59.698Z,1.58
2022-09-15T04:23:26.516Z,1.67
2022-09-15T04:26:06.783Z,2.03
2022-09-15T04:28:35.671Z,1.63
2022-09-15T04:31:08.973Z,1.60
2022-09-15T04:33:35.977Z,1.83
2022-09-15T04:36:04.738Z,1.58
2022-09-15T04:38:31.817Z,2.30
2022-09-15T04:40:58.815Z,1.88
2022-09-15T04:43:26.062Z,1.88
2022-09-15T04:45:52.826Z,2.40
2022-09-15T04:48:19.564Z,2.30
2022-09-15T04:50:46.229Z,3.00
2022-09-15T04:53:12.881Z,2.22
2022-09-15T04:55:39.590Z,2.05
2022-09-15T04:58:06.447Z,1.55
2022-09-15T05:00:34.918Z,1.40
2022-09-15T05:03:01.660Z,1.83
2022-09-15T05:05:28.452Z,1.77
2022-09-15T05:07:56.675Z,1.27
2022-09-15T05:10:23.435Z,2.10
2022-09-15T05:12:50.094Z,1.42
2022-09-15T05:15:16.926Z,2.45
2022-09-15T05:17:43.633Z,2.63
2022-09-15T05:20:10.255Z,1.98
2022-09-15T05:22:41.036Z,1.73
2022-09-15T05:25:08.908Z,1.10
2022-09-15T05:27:35.570Z,1.88
2022-09-15T05:30:31.869Z,2.85
2022-09-15T05:32:48.997Z,1.55
2022-09-15T05:35:16.303Z,2.40
2022-09-15T05:37:42.952Z,3.42
2022-09-15T05:40:10.197Z,1.88
2022-09-15T05:42:37.110Z,2.03
2022-09-15T05:45:04.015Z,2.92
2022-09-15T05:47:30.903Z,1.52
2022-09-15T05:49:57.573Z,1.33
2022-09-15T05:52:24.237Z,1.33
2022-09-15T05:54:50.886Z,1.55
2022-09-15T05:57:17.605Z,1.60
2022-09-15T05:59:44.278Z,1.25
2022-09-15T06:02:11.757Z,1.58
2022-09-15T06:04:38.914Z,1.50
2022-09-15T06:07:05.725Z,1.38
2022-09-15T06:09:32.976Z,1.40
2022-09-15T06:11:59.675Z,1.10
2022-09-15T06:14:26.480Z,2.30
2022-09-15T06:16:53.156Z,1.88
2022-09-15T06:19:19.953Z,2.15
2022-09-15T06:21:47.198Z,2.00
2022-09-15T06:24:13.842Z,1.42
2022-09-15T06:26:40.501Z,2.00
2022-09-15T06:29:07.456Z,1.20
2022-09-15T06:31:34.392Z,1.25
2022-09-15T06:34:02.411Z,1.85
2022-09-15T06:36:29.681Z,1.90
2022-09-15T06:38:56.883Z,0.85
2022-09-15T06:41:24.077Z,1.10
2022-09-15T06:43:50.871Z,1.13
2022-09-15T06:46:28.701Z,1.23
2022-09-15T06:48:55.556Z,1.20
2022-09-15T06:51:24.211Z,1.42
2022-09-15T06:53:51.116Z,1.05
2022-09-15T06:56:19.437Z,1.50
2022-09-15T06:58:46.569Z,0.90
2022-09-15T07:01:14.666Z,1.25
2022-09-15T07:03:42.715Z,2.03
2022-09-15T07:06:09.985Z,1.30
2022-09-15T07:08:36.670Z,1.70
2022-09-15T07:11:04.144Z,1.38
2022-09-15T07:13:30.810Z,2.70
2022-09-15T07:15:59.353Z,1.52
2022-09-15T07:18:26.236Z,1.52
2022-09-15T07:20:53.930Z,1.20
2022-09-15T07:23:20.654Z,1.77
2022-09-15T07:25:47.397Z,1.90
2022-09-15T07:28:14.894Z,1.88
2022-09-15T07:30:42.433Z,1.90
2022-09-15T07:33:10.414Z,1.65
2022-09-15T07:35:43.518Z,1.90
2022-09-15T07:40:38.272Z,1.35
2022-09-15T07:43:05.764Z,1.55
2022-09-15T07:45:32.722Z,2.45
2022-09-15T07:47:59.515Z,2.00
2022-09-15T07:50:26.328Z,2.63
2022-09-15T07:52:56.337Z,2.33
2022-09-15T07:55:23.717Z,1.83
2022-09-15T07:58:00.572Z,2.00
2022-09-15T08:00:27.968Z,1.38
2022-09-15T08:02:55.561Z,2.28
2022-09-15T08:05:25.849Z,2.38
2022-09-15T08:07:52.503Z,3.08
2022-09-15T08:10:19.164Z,1.92
2022-09-15T08:12:45.907Z,1.90
2022-09-15T08:15:12.648Z,1.40
2022-09-15T08:17:39.398Z,2.05
2022-09-15T08:20:06.959Z,2.65
2022-09-15T08:22:33.931Z,1.98
2022-09-15T08:25:00.743Z,2.05
2022-09-15T08:27:27.443Z,1.73
2022-09-15T08:29:54.126Z,2.63
2022-09-15T08:32:21.058Z,4.05
2022-09-15T08:34:47.781Z,2.80
2022-09-15T08:37:14.514Z,1.70
2022-09-15T08:39:41.487Z,2.00
2022-09-15T08:42:13.042Z,1.67
2022-09-15T08:44:51.736Z,1.92
2022-09-15T08:47:26.086Z,2.30
2022-09-15T08:50:01.863Z,1.30
2022-09-15T08:52:51.431Z,1.58
2022-09-15T08:55:41.670Z,2.30
2022-09-15T08:58:15.366Z,1.73
2022-09-15T09:00:42.447Z,2.55
2022-09-15T09:03:31.999Z,1.33
2022-09-15T09:06:09.131Z,1.30
2022-09-15T09:08:57.567Z,2.10
2022-09-15T09:11:45.607Z,1.52
2022-09-15T09:14:33.860Z,2.00
2022-09-15T09:17:16.547Z,1.88
2022-09-15T09:19:46.398Z,1.85
2022-09-15T09:22:15.741Z,2.00
2022-09-15T09:24:46.772Z,1.98
2022-09-15T09:27:18.469Z,2.17
2022-09-15T09:29:49.941Z,3.22
2022-09-15T09:32:27.428Z,2.63
2022-09-15T09:34:58.901Z,2.83
2022-09-15T09:37:25.647Z,1.80
2022-09-15T09:39:52.361Z,2.47
2022-09-15T09:42:19.115Z,1.23
2022-09-15T09:44:46.346Z,1.83
2022-09-15T09:47:13.326Z,1.30
2022-09-15T09:49:45.826Z,3.72
2022-09-15T09:52:12.538Z,2.35
2022-09-15T09:54:39.341Z,2.95
2022-09-15T09:57:21.633Z,2.55
2022-09-15T09:59:49.574Z,2.07
2022-09-15T10:02:20.762Z,3.95
2022-09-15T10:05:05.609Z,3.42
2022-09-15T10:07:33.359Z,2.40
2022-09-15T10:10:00.596Z,2.22
2022-09-15T10:12:35.048Z,3.63
2022-09-15T10:15:03.594Z,4.68
2022-09-15T10:17:36.533Z,2.20
2022-09-15T10:22:37.630Z,3.08
2022-09-15T10:25:39.444Z,3.42
2022-09-15T10:28:21.794Z,1.70
2022-09-15T10:30:59.126Z,2.97
2022-09-15T10:33:27.799Z,1.50
2022-09-15T10:35:55.404Z,2.38
2022-09-15T10:38:50.821Z,2.75
2022-09-15T10:41:35.007Z,2.40
2022-09-15T10:44:41.009Z,2.13
2022-09-15T10:47:21.078Z,2.40
2022-09-15T10:50:16.724Z,3.53
2022-09-15T10:53:16.148Z,3.38
2022-09-15T10:55:54.802Z,1.65
2022-09-15T10:58:31.207Z,1.52
2022-09-15T11:01:09.637Z,2.60
2022-09-15T11:04:03.070Z,3.20
2022-09-15T11:06:39.873Z,2.65
2022-09-15T11:09:25.922Z,2.38
2022-09-15T11:12:08.027Z,2.78
2022-09-15T11:15:10.338Z,2.80
2022-09-15T11:18:22.174Z,1.98
2022-09-15T11:20:51.882Z,2.50
2022-09-15T11:23:28.202Z,3.03
2022-09-15T11:26:00.890Z,1.67
2022-09-15T11:28:51.254Z,1.90
2022-09-15T11:31:21.593Z,3.53
2022-09-15T11:33:48.258Z,1.90
2022-09-15T11:36:18.332Z,2.33
2022-09-15T11:39:20.396Z,2.28
2022-09-15T11:42:10.320Z,2.13
2022-09-15T11:44:39.046Z,1.48
2022-09-15T11:47:07.881Z,2.28
2022-09-15T11:50:00.351Z,1.75
2022-09-15T11:52:35.902Z,2.10
2022-09-15T11:55:36.923Z,1.98
2022-09-15T11:58:22.464Z,2.28
2022-09-15T12:01:27.441Z,2.40
2022-09-15T12:03:59.558Z,1.77
2022-09-15T12:07:09.846Z,3.67
2022-09-15T12:09:38.934Z,2.47
2022-09-15T12:12:16.722Z,3.67
2022-09-15T12:14:44.932Z,2.75
2022-09-15T12:17:19.297Z,2.95
2022-09-15T12:19:52.561Z,2.47
2022-09-15T12:23:01.219Z,2.70
2022-09-15T12:25:34.051Z,2.08
2022-09-15T12:28:22.766Z,2.63
2022-09-15T12:31:23.497Z,2.67
2022-09-15T12:34:03.625Z,1.85
2022-09-15T12:36:37.308Z,2.17
2022-09-15T12:39:17.187Z,2.78
2022-09-15T12:42:05.488Z,2.53
2022-09-15T12:44:56.743Z,2.63
2022-09-15T12:47:42.490Z,2.03
2022-09-15T12:50:27.547Z,2.40
2022-09-15T12:52:59.919Z,1.50
2022-09-15T12:55:28.777Z,2.40
2022-09-15T12:58:00.218Z,3.25
2022-09-15T13:00:28.893Z,2.60
2022-09-15T13:02:55.925Z,1.77
2022-09-15T13:05:41.362Z,1.73
2022-09-15T13:08:37.056Z,2.10
2022-09-15T13:11:10.714Z,2.25
2022-09-15T13:13:57.906Z,4.22
2022-09-15T13:16:33.315Z,1.33
2022-09-15T13:19:30.087Z,2.53
2022-09-15T13:22:06.241Z,1.92
2022-09-15T13:24:44.172Z,2.28
2022-09-15T13:27:10.864Z,4.15
2022-09-15T13:29:44.537Z,2.03
2022-09-15T13:32:20.121Z,1.38
2022-09-15T13:35:16.731Z,1.05
2022-09-15T13:38:08.309Z,1.00
2022-09-15T13:41:02.075Z,1.35
2022-09-15T13:43:41.369Z,1.30
2022-09-15T13:46:34.174Z,1.63
2022-09-15T13:49:35.628Z,1.77
2022-09-15T13:52:23.344Z,1.67
2022-09-15T13:55:15.673Z,1.92
2022-09-15T14:00:33.823Z,1.48
2022-09-15T14:03:16.282Z,2.15
2022-09-15T14:05:43.257Z,2.60
2022-09-15T14:08:17.426Z,2.30
2022-09-15T14:10:54.874Z,3.47
2022-09-15T14:13:22.291Z,2.00
2022-09-15T14:16:09.242Z,1.40
2022-09-15T14:18:44.268Z,1.63
2022-09-15T14:21:17.387Z,1.38
2022-09-15T14:23:48.846Z,1.40
2022-09-15T14:26:16.747Z,1.80
2022-09-15T14:28:49.894Z,2.00
2022-09-15T14:31:16.915Z,1.75
2022-09-15T14:33:43.587Z,1.05
2022-09-15T14:36:15.121Z,0.90
2022-09-15T14:38:42.113Z,1.08
2022-09-15T14:41:18.481Z,2.03
2022-09-15T14:43:45.158Z,1.40
2022-09-15T14:46:17.453Z,0.85
2022-09-15T14:48:44.165Z,0.68
2022-09-15T14:51:34.178Z,2.35
2022-09-15T14:54:00.978Z,0.90
2022-09-15T14:56:30.316Z,1.40
2022-09-15T14:58:59.550Z,0.93
2022-09-15T15:01:38.749Z,1.17
2022-09-15T15:04:37.103Z,1.00
2022-09-15T15:07:19.990Z,1.35
2022-09-15T15:09:48.849Z,2.13
2022-09-15T15:12:27.913Z,0.85
2022-09-15T15:14:55.008Z,1.63
2022-09-15T15:17:27.310Z,3.00
2022-09-15T15:20:24.599Z,1.45
2022-09-15T15:23:24.541Z,1.67
2022-09-15T15:25:51.695Z,1.63
2022-09-15T15:28:34.964Z,2.95
2022-09-15T15:31:12.370Z,1.70
2022-09-15T15:33:45.571Z,2.63
2022-09-15T15:36:12.356Z,1.48
2022-09-15T15:38:47.273Z,1.73
2022-09-15T15:41:22.539Z,1.45
2022-09-15T15:43:57.182Z,1.90
2022-09-15T15:46:46.576Z,0.88
2022-09-15T15:49:13.506Z,0.77
2022-09-15T15:51:40.786Z,1.35
2022-09-15T15:54:07.558Z,0.85
2022-09-15T15:56:37.858Z,1.52
2022-09-15T15:59:05.750Z,2.33
2022-09-15T16:01:33.034Z,1.40
2022-09-15T16:03:59.988Z,0.70
2022-09-15T16:06:26.793Z,0.85
2022-09-15T16:08:53.599Z,0.60
2022-09-15T16:11:20.891Z,0.52
2022-09-15T16:13:48.348Z,1.42
2022-09-15T16:16:20.060Z,3.70
2022-09-15T16:18:46.941Z,1.17
2022-09-15T16:21:21.427Z,1.02
2022-09-15T16:23:48.166Z,0.98
2022-09-15T16:26:16.707Z,1.15
2022-09-15T16:28:43.442Z,0.95
2022-09-15T16:31:14.602Z,0.75
2022-09-15T16:33:42.051Z,1.30
2022-09-15T16:36:13.788Z,2.08
2022-09-15T16:38:41.255Z,0.88
2022-09-15T16:41:26.987Z,1.60
2022-09-15T16:43:55.718Z,1.52
2022-09-15T16:46:22.618Z,0.52
2022-09-15T16:48:49.351Z,0.73
2022-09-15T16:51:26.647Z,2.45
2022-09-15T16:53:55.438Z,1.15
2022-09-15T16:56:22.233Z,1.30
2022-09-15T16:58:48.989Z,2.28
2022-09-15T17:01:20.205Z,1.05
2022-09-15T17:03:47.361Z,0.77
2022-09-15T17:06:15.602Z,1.35
2022-09-15T17:08:42.269Z,0.50
2022-09-15T17:11:17.081Z,0.50
2022-09-15T17:13:44.009Z,0.70
2022-09-15T17:16:11.283Z,0.55
2022-09-15T17:18:38.095Z,0.50
2022-09-15T17:21:04.880Z,0.38
2022-09-15T17:23:35.233Z,0.55
2022-09-15T17:26:04.182Z,0.63
2022-09-15T17:28:33.245Z,0.57
2022-09-15T17:31:01.351Z,0.50
2022-09-15T17:33:28.916Z,1.00
2022-09-15T17:35:55.751Z,1.58
2022-09-15T17:38:22.443Z,0.85
2022-09-15T17:40:49.858Z,0.63
2022-09-15T17:43:18.713Z,1.10
2022-09-15T17:45:45.598Z,0.65
2022-09-15T17:48:12.356Z,0.47
2022-09-15T17:50:39.852Z,0.75
2022-09-15T17:53:12.695Z,0.65
2022-09-15T17:58:06.149Z,0.55
2022-09-15T18:00:35.653Z,0.22
2022-09-15T18:03:15.507Z,0.63
2022-09-15T18:05:42.320Z,0.35
2022-09-15T18:08:09.004Z,0.40
2022-09-15T18:10:35.888Z,0.95
2022-09-15T18:13:03.339Z,0.68
2022-09-15T18:15:31.503Z,0.90
2022-09-15T18:18:00.100Z,0.40
2022-09-15T18:20:27.878Z,0.30
2022-09-15T18:22:54.775Z,0.45
2022-09-15T18:25:27.182Z,0.93
2022-09-15T18:27:54.089Z,0.55
2022-09-15T18:30:22.066Z,0.47
2022-09-15T18:32:48.981Z,0.40
2022-09-15T18:35:18.614Z,0.90
2022-09-15T18:37:46.315Z,0.45
2022-09-15T18:40:14.676Z,0.40
2022-09-15T18:42:41.638Z,0.30
2022-09-15T18:45:09.610Z,0.40
2022-09-15T18:47:36.474Z,0.20
2022-09-15T18:50:06.428Z,0.73
2022-09-15T18:52:37.245Z,0.47
2022-09-15T18:55:05.238Z,0.45
2022-09-15T18:57:38.939Z,0.35
2022-09-15T19:00:08.657Z,0.25
2022-09-15T19:02:35.542Z,0.32
2022-09-15T19:05:02.284Z,0.25
2022-09-15T19:07:29.091Z,0.22
2022-09-15T19:09:56.711Z,0.20
2022-09-15T19:12:23.646Z,0.28
2022-09-15T19:14:50.435Z,0.20
2022-09-15T19:17:17.112Z,0.20
2022-09-15T19:19:43.954Z,0.65
2022-09-15T19:22:10.583Z,0.43
2022-09-15T19:24:37.258Z,1.35
2022-09-15T19:27:04.709Z,1.00
2022-09-15T19:29:34.894Z,1.08
2022-09-15T19:32:03.715Z,1.23
2022-09-15T19:34:30.522Z,1.00
2022-09-15T19:36:57.216Z,0.90
2022-09-15T19:39:23.902Z,0.93
2022-09-15T19:41:50.763Z,0.52
2022-09-15T19:44:17.567Z,0.75
2022-09-15T19:46:44.545Z,0.60
2022-09-15T19:49:11.478Z,0.30
2022-09-15T19:51:38.312Z,0.40
2022-09-15T19:54:05.281Z,0.30
2022-09-15T19:56:32.064Z,0.43
2022-09-15T19:58:59.067Z,0.30
2022-09-15T20:01:27.475Z,1.15
2022-09-15T20:03:55.855Z,0.60
2022-09-15T20:06:22.979Z,1.23
2022-09-15T20:08:58.092Z,0.40
2022-09-15T20:11:26.225Z,0.50
2022-09-15T20:13:53.755Z,0.20
2022-09-15T20:16:21.086Z,0.20
2022-09-15T20:18:48.660Z,0.65
2022-09-15T20:21:32.557Z,0.30
2022-09-15T20:24:05.286Z,0.43
2022-09-15T20:26:32.184Z,0.20
2022-09-15T20:29:02.287Z,0.65
2022-09-15T20:31:29.325Z,0.55
2022-09-15T20:33:56.167Z,0.40
2022-09-15T20:36:28.739Z,0.20
2022-09-15T20:38:56.033Z,0.65
2022-09-15T20:41:24.367Z,0.50
2022-09-15T20:43:51.338Z,0.30
2022-09-15T20:46:19.484Z,0.43
2022-09-15T20:48:46.573Z,0.75
2022-09-15T20:51:18.038Z,0.40
2022-09-15T20:53:46.025Z,0.93
2022-09-15T20:56:13.341Z,0.15
2022-09-15T20:58:40.068Z,0.40
2022-09-15T21:01:14.418Z,0.52
2022-09-15T21:03:42.715Z,0.70
2022-09-15T21:06:14.935Z,0.35
2022-09-15T21:08:41.926Z,0.40
2022-09-15T21:11:10.539Z,0.22
2022-09-15T21:13:38.568Z,0.20
2022-09-15T21:16:07.700Z,0.30
2022-09-15T21:18:36.071Z,0.25
2022-09-15T21:21:07.503Z,1.23
2022-09-15T21:23:36.373Z,0.85
2022-09-15T21:26:05.488Z,1.63
2022-09-15T21:28:32.769Z,1.58
2022-09-15T21:31:05.476Z,0.63
2022-09-15T21:33:32.267Z,0.88
2022-09-15T21:36:29.602Z,0.98
2022-09-15T21:38:57.105Z,0.47
2022-09-15T21:41:26.056Z,0.98
2022-09-15T21:43:54.792Z,0.32
2022-09-15T21:46:23.600Z,0.60
2022-09-15T21:48:50.376Z,0.60
2022-09-15T21:51:24.698Z,0.47
2022-09-15T21:53:52.875Z,0.65
2022-09-15T21:56:19.588Z,1.17
2022-09-15T21:58:46.357Z,0.30
2022-09-15T22:01:20.842Z,0.68
2022-09-15T22:03:52.130Z,0.70
2022-09-15T22:06:20.152Z,0.40
2022-09-15T22:09:05.951Z,1.27
2022-09-15T22:11:32.799Z,0.20
2022-09-15T22:14:01.697Z,0.40
2022-09-15T22:16:28.625Z,0.25
2022-09-15T22:18:55.518Z,1.38
2022-09-15T22:21:24.021Z,0.82
2022-09-15T22:23:51.189Z,0.60
2022-09-15T22:26:26.175Z,0.55
2022-09-15T22:28:53.249Z,0.43
2022-09-15T22:31:20.464Z,0.32
2022-09-15T22:33:47.389Z,0.22
2022-09-15T22:36:19.050Z,0.28
2022-09-15T22:38:45.945Z,0.20
2022-09-15T22:41:14.545Z,0.40
2022-09-15T22:43:42.034Z,0.40
2022-09-15T22:46:08.969Z,0.30
2022-09-15T22:48:38.603Z,0.30
2022-09-15T22:51:09.384Z,0.60
2022-09-15T22:53:36.088Z,0.70
2022-09-15T22:56:20.077Z,0.73
2022-09-15T22:58:47.604Z,0.30
2022-09-15T23:01:16.168Z,0.73
2022-09-15T23:03:43.823Z,0.40
2022-09-15T23:06:10.708Z,0.50
2022-09-15T23:08:37.384Z,0.45
2022-09-15T23:11:12.548Z,0.22
2022-09-15T23:13:39.747Z,0.30
2022-09-15T23:16:06.912Z,0.40
2022-09-15T23:18:34.795Z,0.28
2022-09-15T23:21:07.322Z,0.40
2022-09-15T23:23:35.033Z,0.70
2022-09-15T23:26:02.164Z,0.30
2022-09-15T23:28:29.881Z,0.63
2022-09-15T23:30:57.279Z,0.63
2022-09-15T23:33:24.459Z,0.50
2022-09-15T23:35:51.409Z,1.25
2022-09-15T23:38:19.409Z,0.32
2022-09-15T23:40:46.737Z,0.63
2022-09-15T23:43:13.838Z,0.60
2022-09-15T23:45:40.597Z,0.47
2022-09-15T23:48:10.466Z,0.70
2022-09-15T23:50:37.571Z,0.43
2022-09-15T23:53:04.733Z,1.08
2022-09-15T23:55:31.399Z,0.88
2022-09-15T23:57:58.071Z,1.05
